Time;durP1;ratioP1;P1;durP2;ratioP2;P2;SDS_P1;SDS_P2;PMS_P1;PMS_P2;Temp;Humidity;BMP_temperature;BMP_pressure;BME280_temperature;BME280_humidity;BME280_pressure;Samples;Min_cycle;Max_cycle;Signal;HPM_P1;HPM_P2
2021/12/12 00:00:44;;;;;;;;;;;21.10;47.90;;;;;;6236325;28;19934;-39
2021/12/12 00:03:49;;;;;;;;;;;21.00;47.80;;;;;;6219867;28;20845;-38
2021/12/12 00:06:52;;;;;;;;;;;21.40;48.10;;;;;;6236293;28;19935;-37
2021/12/12 00:09:54;;;;;;;;;;;20.70;47.60;;;;;;6217405;28;20154;-38
2021/12/12 00:12:57;;;;;;;;;;;20.90;47.80;;;;;;6235158;28;20260;-38
2021/12/12 00:16:00;;;;;;;;;;;20.80;47.80;;;;;;6217485;28;19952;-38
2021/12/12 00:19:01;;;;;;;;;;;20.80;48.00;;;;;;6244176;28;19941;-37
2021/12/12 00:22:04;;;;;;;;;;;21.00;48.00;;;;;;6244626;28;19928;-38
2021/12/12 00:25:07;;;;;;;;;;;21.10;48.00;;;;;;6244133;28;20253;-37
2021/12/12 00:28:10;;;;;;;;;;;20.60;47.80;;;;;;6245274;28;20055;-37
2021/12/12 00:31:13;;;;;;;;;;;20.80;47.80;;;;;;6241348;28;19936;-40
2021/12/12 00:34:15;;;;;;;;;;;20.80;47.90;;;;;;6240787;28;20029;-37
2021/12/12 00:37:17;;;;;;;;;;;20.60;47.80;;;;;;6234388;28;19928;-38
2021/12/12 00:40:21;;;;;;;;;;;20.80;47.90;;;;;;6238729;28;19920;-37
2021/12/12 00:43:25;;;;;;;;;;;21.10;48.00;;;;;;6240026;28;20035;-38
2021/12/12 00:46:27;;;;;;;;;;;20.80;48.00;;;;;;6213425;28;20055;-38
2021/12/12 00:49:30;;;;;;;;;;;20.70;48.00;;;;;;6242507;28;19932;-37
2021/12/12 00:52:31;;;;;;;;;;;21.30;48.20;;;;;;6238662;28;20023;-38
2021/12/12 00:55:37;;;;;;;;;;;20.90;48.00;;;;;;6242303;28;20631;-37
2021/12/12 00:58:39;;;;;;;;;;;21.10;48.20;;;;;;6240324;28;20950;-37
2021/12/12 01:01:47;;;;;;;;;;;20.90;48.20;;;;;;6243291;28;19971;-38
2021/12/12 01:04:50;;;;;;;;;;;21.50;48.50;;;;;;6238237;28;19924;-37
2021/12/12 01:07:51;;;;;;;;;;;20.50;48.50;;;;;;6241406;28;20055;-37
2021/12/12 01:10:54;;;;;;;;;;;20.90;48.20;;;;;;6226875;28;20790;-37
2021/12/12 01:13:56;;;;;;;;;;;21.20;48.30;;;;;;6243390;28;19937;-38
2021/12/12 01:16:59;;;;;;;;;;;20.60;47.90;;;;;;6245448;28;20035;-37
2021/12/12 01:20:07;;;;;;;;;;;20.50;48.00;;;;;;6243327;28;19948;-37
2021/12/12 01:23:10;;;;;;;;;;;20.70;48.20;;;;;;6241972;28;20721;-37
2021/12/12 01:26:12;;;;;;;;;;;21.00;48.20;;;;;;6242296;28;20845;-40
2021/12/12 01:29:14;;;;;;;;;;;20.80;48.10;;;;;;6244920;28;19929;-40
2021/12/12 01:32:24;;;;;;;;;;;20.90;48.30;;;;;;6243759;28;20038;-41
2021/12/12 01:35:26;;;;;;;;;;;21.70;48.80;;;;;;6239821;28;19928;-39
2021/12/12 01:41:46;;;;;;;;;;;20.70;48.20;;;;;;6241526;28;20782;-41
2021/12/12 01:44:50;;;;;;;;;;;20.80;48.20;;;;;;6235716;28;20018;-39
2021/12/12 01:47:55;;;;;;;;;;;23.00;49.40;;;;;;6225426;28;20652;-40
2021/12/12 01:50:58;;;;;;;;;;;21.20;48.50;;;;;;6241860;28;21224;-40
2021/12/12 01:54:01;;;;;;;;;;;20.70;48.20;;;;;;6226148;28;19928;-39
2021/12/12 01:57:02;;;;;;;;;;;21.10;48.40;;;;;;6225603;28;20791;-40
2021/12/12 02:00:07;;;;;;;;;;;20.80;48.30;;;;;;6242820;28;20910;-40
2021/12/12 02:03:14;;;;;;;;;;;21.00;48.40;;;;;;6237498;28;19998;-40
2021/12/12 02:06:17;;;;;;;;;;;20.90;47.80;;;;;;6241774;28;19928;-39
2021/12/12 02:09:19;;;;;;;;;;;20.80;48.30;;;;;;6238661;28;19962;-39
2021/12/12 02:12:22;;;;;;;;;;;20.80;48.30;;;;;;6243994;28;20038;-40
2021/12/12 02:15:23;;;;;;;;;;;21.00;48.60;;;;;;6225695;28;20725;-40
2021/12/12 02:18:31;;;;;;;;;;;20.80;49.10;;;;;;6244705;28;19974;-40
2021/12/12 02:21:37;;;;;;;;;;;20.80;48.40;;;;;;6247385;28;19928;-39
2021/12/12 02:37:43;;;;;;;;;;;21.70;49.60;;;;;;6239586;28;20226;-39
2021/12/12 02:40:48;;;;;;;;;;;20.80;48.40;;;;;;6211533;28;19989;-40
2021/12/12 02:43:51;;;;;;;;;;;20.70;48.40;;;;;;6232858;28;19928;-39
2021/12/12 02:46:53;;;;;;;;;;;20.60;48.30;;;;;;6209124;28;20560;-40
2021/12/12 02:50:07;;;;;;;;;;;20.70;48.50;;;;;;6230841;28;19924;-39
2021/12/12 02:53:11;;;;;;;;;;;21.20;48.80;;;;;;6232117;28;20046;-39
2021/12/12 02:56:16;;;;;;;;;;;21.00;48.60;;;;;;6212323;28;20257;-39
2021/12/12 02:59:19;;;;;;;;;;;21.30;49.00;;;;;;6211650;28;19928;-39
2021/12/12 03:02:23;;;;;;;;;;;20.60;48.60;;;;;;6230573;28;20048;-40
2021/12/12 03:05:27;;;;;;;;;;;20.80;48.60;;;;;;6208501;28;20562;-39
2021/12/12 03:08:28;;;;;;;;;;;21.60;49.10;;;;;;6213093;28;20265;-39
2021/12/12 03:11:30;;;;;;;;;;;20.80;48.70;;;;;;6229749;28;20036;-39
2021/12/12 03:14:33;;;;;;;;;;;20.80;48.70;;;;;;6228605;28;19928;-40
2021/12/12 03:17:35;;;;;;;;;;;21.40;48.90;;;;;;6231420;28;20046;-40
2021/12/12 03:20:38;;;;;;;;;;;20.80;48.70;;;;;;6231693;28;20492;-40
2021/12/12 03:23:39;;;;;;;;;;;21.20;48.80;;;;;;6231327;28;20316;-40
2021/12/12 03:26:43;;;;;;;;;;;20.80;48.80;;;;;;6242501;28;19924;-39
2021/12/12 03:29:44;;;;;;;;;;;21.10;49.00;;;;;;6209570;28;20279;-39
2021/12/12 03:32:46;;;;;;;;;;;21.00;48.80;;;;;;6226509;28;19928;-40
2021/12/12 03:35:49;;;;;;;;;;;20.70;48.80;;;;;;6227759;28;20740;-39
2021/12/12 03:38:54;;;;;;;;;;;21.60;49.20;;;;;;6229052;28;20174;-39
2021/12/12 03:41:57;;;;;;;;;;;20.90;48.90;;;;;;6210338;28;20449;-38
2021/12/12 03:44:59;;;;;;;;;;;20.80;49.00;;;;;;6233098;28;20027;-37
2021/12/12 03:48:05;;;;;;;;;;;20.60;48.70;;;;;;6231283;28;20669;-37
2021/12/12 03:51:08;;;;;;;;;;;20.90;48.90;;;;;;6231522;28;20459;-38
2021/12/12 03:54:10;;;;;;;;;;;20.60;48.80;;;;;;6232910;28;20867;-38
2021/12/12 03:57:12;;;;;;;;;;;21.00;49.00;;;;;;6227979;28;20425;-37
2021/12/12 04:00:15;;;;;;;;;;;21.50;49.40;;;;;;6230265;28;20319;-38
2021/12/12 04:03:17;;;;;;;;;;;20.60;48.90;;;;;;6223088;28;20469;-37
2021/12/12 04:06:21;;;;;;;;;;;21.10;49.00;;;;;;6228879;28;20155;-38
2021/12/12 04:09:22;;;;;;;;;;;21.20;49.10;;;;;;6228891;28;20047;-37
2021/12/12 04:12:24;;;;;;;;;;;21.00;49.00;;;;;;6214738;28;19946;-37
2021/12/12 04:15:26;;;;;;;;;;;20.70;49.00;;;;;;6232618;28;20166;-37
2021/12/12 04:18:28;;;;;;;;;;;21.20;49.20;;;;;;6232515;28;20039;-37
2021/12/12 04:21:29;;;;;;;;;;;21.40;49.30;;;;;;6230863;28;20105;-38
2021/12/12 04:24:32;;;;;;;;;;;21.20;49.30;;;;;;6230237;28;20322;-37
2021/12/12 04:27:35;;;;;;;;;;;20.80;49.00;;;;;;6212729;28;20259;-38
2021/12/12 04:30:37;;;;;;;;;;;21.10;49.20;;;;;;6232190;28;20263;-37
2021/12/12 04:33:38;;;;;;;;;;;20.80;49.00;;;;;;6230807;28;19968;-38
2021/12/12 04:36:41;;;;;;;;;;;21.00;49.30;;;;;;6228382;28;20262;-38
2021/12/12 04:39:47;;;;;;;;;;;21.20;49.00;;;;;;6232014;28;19924;-38
2021/12/12 04:42:51;;;;;;;;;;;20.90;49.10;;;;;;6211723;28;20047;-38
2021/12/12 04:46:03;;;;;;;;;;;20.70;49.10;;;;;;6230318;28;20857;-38
2021/12/12 04:52:25;;;;;;;;;;;21.30;49.40;;;;;;6216260;28;19928;-38
2021/12/12 04:55:28;;;;;;;;;;;20.90;49.20;;;;;;6231678;28;19928;-39
2021/12/12 04:58:35;;;;;;;;;;;21.00;49.20;;;;;;6229917;28;19925;-39
2021/12/12 05:01:37;;;;;;;;;;;20.90;49.20;;;;;;6224833;28;19933;-38
2021/12/12 05:04:44;;;;;;;;;;;20.70;49.10;;;;;;6207554;28;19924;-38
2021/12/12 05:07:47;;;;;;;;;;;21.10;49.40;;;;;;6228503;28;20476;-38
2021/12/12 05:10:53;;;;;;;;;;;21.30;48.90;;;;;;6214175;28;20312;-38
2021/12/12 05:13:56;;;;;;;;;;;21.30;49.40;;;;;;6231411;28;19947;-38
2021/12/12 05:17:00;;;;;;;;;;;20.70;49.30;;;;;;6227641;28;20046;-40
2021/12/12 05:20:06;;;;;;;;;;;20.60;49.20;;;;;;6230885;28;20451;-38
2021/12/12 05:23:10;;;;;;;;;;;20.60;49.10;;;;;;6230908;28;20186;-37
2021/12/12 05:26:13;;;;;;;;;;;21.10;49.40;;;;;;6213785;28;19924;-38
2021/12/12 05:29:19;;;;;;;;;;;20.80;49.30;;;;;;6228912;28;19924;-38
2021/12/12 05:32:21;;;;;;;;;;;20.80;49.40;;;;;;6230302;28;20611;-37
2021/12/12 05:35:24;;;;;;;;;;;20.70;49.20;;;;;;6226101;28;19954;-37
2021/12/12 05:38:26;;;;;;;;;;;20.80;49.30;;;;;;6226392;28;19928;-39
2021/12/12 05:41:27;;;;;;;;;;;21.20;49.20;;;;;;6210858;28;20055;-38
2021/12/12 05:44:30;;;;;;;;;;;20.70;49.20;;;;;;6228471;28;20374;-38
2021/12/12 05:47:32;;;;;;;;;;;20.70;49.40;;;;;;6233390;28;20226;-39
2021/12/12 05:50:33;;;;;;;;;;;21.20;49.60;;;;;;6232007;28;20495;-38
2021/12/12 05:53:35;;;;;;;;;;;20.70;49.50;;;;;;6236153;28;20193;-39
2021/12/12 05:56:38;;;;;;;;;;;21.10;49.50;;;;;;6231236;28;20335;-38
2021/12/12 05:59:40;;;;;;;;;;;21.10;49.50;;;;;;6230702;28;19924;-38
2021/12/12 06:02:42;;;;;;;;;;;21.00;49.60;;;;;;6232186;28;20093;-37
2021/12/12 06:05:43;;;;;;;;;;;20.60;49.40;;;;;;6229725;28;20487;-38
2021/12/12 06:08:45;;;;;;;;;;;20.90;49.50;;;;;;6231810;28;19924;-38
2021/12/12 06:11:49;;;;;;;;;;;21.30;49.80;;;;;;6213893;28;19928;-38
2021/12/12 06:14:52;;;;;;;;;;;21.00;49.60;;;;;;6209206;28;19929;-38
2021/12/12 06:17:53;;;;;;;;;;;21.00;49.60;;;;;;6231498;28;19930;-39
2021/12/12 06:20:55;;;;;;;;;;;20.80;49.70;;;;;;6233836;28;20043;-38
2021/12/12 06:23:57;;;;;;;;;;;21.00;49.60;;;;;;6232660;28;20084;-37
2021/12/12 06:27:02;;;;;;;;;;;20.60;49.40;;;;;;6235909;28;19971;-37
2021/12/12 06:30:06;;;;;;;;;;;20.50;49.40;;;;;;6210644;28;20602;-38
2021/12/12 06:33:09;;;;;;;;;;;21.00;49.70;;;;;;6228196;28;19935;-38
2021/12/12 06:36:11;;;;;;;;;;;20.70;49.50;;;;;;6234808;28;20374;-37
2021/12/12 06:39:14;;;;;;;;;;;21.10;49.70;;;;;;6227740;28;20029;-37
2021/12/12 06:42:15;;;;;;;;;;;21.40;50.00;;;;;;6208271;28;20376;-38
2021/12/12 06:45:17;;;;;;;;;;;20.70;49.50;;;;;;6223525;28;20831;-38
2021/12/12 06:48:19;;;;;;;;;;;20.70;49.60;;;;;;6229129;28;20477;-38
2021/12/12 06:51:21;;;;;;;;;;;21.10;49.90;;;;;;6230463;28;19968;-38
2021/12/12 06:54:24;;;;;;;;;;;20.60;49.50;;;;;;6229935;28;19930;-39
2021/12/12 06:57:25;;;;;;;;;;;20.80;49.70;;;;;;6228633;28;21035;-38
2021/12/12 07:00:27;;;;;;;;;;;20.70;49.80;;;;;;6224702;28;20051;-38
2021/12/12 07:03:29;;;;;;;;;;;20.70;49.70;;;;;;6225818;28;19991;-39
2021/12/12 07:06:31;;;;;;;;;;;20.60;49.60;;;;;;6226957;28;20060;-43
2021/12/12 07:09:33;;;;;;;;;;;20.80;49.90;;;;;;6231332;28;20012;-41
2021/12/12 07:12:34;;;;;;;;;;;21.10;49.80;;;;;;6233483;28;19971;-38
2021/12/12 07:15:39;;;;;;;;;;;20.80;49.70;;;;;;6211624;28;20361;-38
2021/12/12 07:18:41;;;;;;;;;;;20.90;49.90;;;;;;6229741;28;20443;-40
2021/12/12 07:21:43;;;;;;;;;;;21.10;50.00;;;;;;6225466;28;20130;-38
2021/12/12 07:24:45;;;;;;;;;;;20.70;49.60;;;;;;6212288;28;20255;-39
2021/12/12 07:27:49;;;;;;;;;;;21.10;50.00;;;;;;6233594;28;20279;-40
2021/12/12 07:30:51;;;;;;;;;;;20.70;49.70;;;;;;6232073;28;20430;-38
2021/12/12 07:33:54;;;;;;;;;;;21.10;50.10;;;;;;6226171;28;20301;-40
2021/12/12 07:36:59;;;;;;;;;;;20.80;49.80;;;;;;6231101;28;20504;-39
2021/12/12 07:40:01;;;;;;;;;;;20.70;49.70;;;;;;6232048;28;20456;-40
2021/12/12 07:43:04;;;;;;;;;;;21.00;49.90;;;;;;6230073;28;20161;-38
2021/12/12 07:46:07;;;;;;;;;;;20.90;50.00;;;;;;6225910;28;19938;-39
2021/12/12 07:49:08;;;;;;;;;;;20.50;50.40;;;;;;6234003;28;20017;-38
2021/12/12 07:52:11;;;;;;;;;;;21.00;50.10;;;;;;6214454;28;20148;-39
2021/12/12 07:55:12;;;;;;;;;;;20.60;49.70;;;;;;6230537;28;20357;-39
2021/12/12 07:58:14;;;;;;;;;;;20.40;49.70;;;;;;6227733;28;20378;-38
2021/12/12 08:01:17;;;;;;;;;;;20.60;49.80;;;;;;6238728;28;20074;-40
2021/12/12 08:04:21;;;;;;;;;;;21.00;50.10;;;;;;6223817;28;19928;-38
2021/12/12 08:07:23;;;;;;;;;;;20.70;49.80;;;;;;6230783;28;19997;-38
2021/12/12 08:10:26;;;;;;;;;;;20.70;49.80;;;;;;6208760;28;20117;-38
2021/12/12 08:13:27;;;;;;;;;;;21.10;49.50;;;;;;6231410;28;20714;-38
2021/12/12 08:16:29;;;;;;;;;;;21.00;50.10;;;;;;6229320;28;20253;-38
2021/12/12 08:19:31;;;;;;;;;;;20.80;50.00;;;;;;6231673;28;20188;-38
2021/12/12 08:22:33;;;;;;;;;;;21.00;50.30;;;;;;6227368;28;20209;-38
2021/12/12 08:25:35;;;;;;;;;;;20.80;49.90;;;;;;6229138;28;20068;-38
2021/12/12 08:28:37;;;;;;;;;;;20.60;49.80;;;;;;6227452;28;20335;-39
2021/12/12 08:31:39;;;;;;;;;;;20.70;50.00;;;;;;6202251;28;20237;-38
2021/12/12 08:34:41;;;;;;;;;;;21.10;50.10;;;;;;6208381;28;19936;-39
2021/12/12 08:37:43;;;;;;;;;;;20.60;50.00;;;;;;6208175;28;20324;-37
2021/12/12 08:40:49;;;;;;;;;;;21.10;50.20;;;;;;6227897;28;19975;-38
2021/12/12 08:43:51;;;;;;;;;;;20.60;49.80;;;;;;6228594;28;20067;-38
2021/12/12 08:46:54;;;;;;;;;;;20.70;50.00;;;;;;6228832;28;19978;-38
2021/12/12 08:49:55;;;;;;;;;;;20.80;50.20;;;;;;6229196;28;19951;-37
2021/12/12 08:52:57;;;;;;;;;;;21.00;50.20;;;;;;6225747;28;20305;-38
2021/12/12 08:55:59;;;;;;;;;;;21.00;50.10;;;;;;6212073;28;20013;-38
2021/12/12 08:59:01;;;;;;;;;;;20.50;49.90;;;;;;6225800;28;19975;-38
2021/12/12 09:02:05;;;;;;;;;;;20.60;50.00;;;;;;6227583;28;20347;-38
2021/12/12 09:05:09;;;;;;;;;;;20.60;50.00;;;;;;6226230;28;20580;-38
2021/12/12 09:08:11;;;;;;;;;;;20.60;50.00;;;;;;6209454;28;19966;-38
2021/12/12 09:11:15;;;;;;;;;;;21.00;50.30;;;;;;6227632;28;20083;-38
2021/12/12 09:14:18;;;;;;;;;;;21.30;50.30;;;;;;6226530;28;20229;-37
2021/12/12 09:17:24;;;;;;;;;;;21.10;50.20;;;;;;6230110;28;20222;-38
2021/12/12 09:20:33;;;;;;;;;;;20.70;50.10;;;;;;6211617;28;20049;-37
2021/12/12 09:23:37;;;;;;;;;;;21.10;50.10;;;;;;6232838;28;20104;-38
2021/12/12 09:26:43;;;;;;;;;;;20.70;49.90;;;;;;6231308;28;19968;-38
2021/12/12 09:29:48;;;;;;;;;;;21.10;50.00;;;;;;6225712;28;20419;-37
2021/12/12 09:32:52;;;;;;;;;;;20.70;49.80;;;;;;6224583;28;19924;-38
2021/12/12 09:35:55;;;;;;;;;;;21.20;50.10;;;;;;6227615;28;20346;-37
2021/12/12 09:38:59;;;;;;;;;;;20.90;49.80;;;;;;6232716;28;20145;-37
2021/12/12 09:42:15;;;;;;;;;;;21.20;49.90;;;;;;6229875;28;20039;-39
2021/12/12 09:45:27;;;;;;;;;;;21.20;47.40;;;;;;6230836;28;20310;-37
2021/12/12 09:52:04;;;;;;;;;;;21.30;49.80;;;;;;6207433;28;20417;-38
2021/12/12 09:55:08;;;;;;;;;;;21.30;49.70;;;;;;6226427;28;19932;-38
2021/12/12 09:58:14;;;;;;;;;;;21.30;49.70;;;;;;6230649;28;20441;-37
2021/12/12 10:01:20;;;;;;;;;;;21.00;49.40;;;;;;6220444;28;20043;-38
2021/12/12 10:04:26;;;;;;;;;;;21.00;49.40;;;;;;6223692;28;19928;-37
2021/12/12 10:07:33;;;;;;;;;;;21.10;49.50;;;;;;6223493;28;20188;-37
2021/12/12 10:10:38;;;;;;;;;;;21.10;49.50;;;;;;6208617;28;19928;-37
2021/12/12 10:13:41;;;;;;;;;;;21.40;49.50;;;;;;6225965;28;20364;-38
2021/12/12 10:16:47;;;;;;;;;;;21.70;49.70;;;;;;6226146;28;19924;-37
2021/12/12 10:19:53;;;;;;;;;;;21.10;49.40;;;;;;6209570;28;20003;-39
2021/12/12 10:23:00;;;;;;;;;;;21.30;49.50;;;;;;6224460;28;20069;-37
2021/12/12 10:26:03;;;;;;;;;;;21.00;49.20;;;;;;6219835;28;20307;-39
2021/12/12 10:29:08;;;;;;;;;;;21.10;49.30;;;;;;6225585;28;19935;-38
2021/12/12 10:32:12;;;;;;;;;;;21.40;49.50;;;;;;6202182;28;19932;-39
2021/12/12 10:35:15;;;;;;;;;;;21.20;49.30;;;;;;6230964;28;19928;-38
2021/12/12 10:38:20;;;;;;;;;;;21.40;49.50;;;;;;6214428;28;20146;-38
2021/12/12 10:41:23;;;;;;;;;;;21.20;49.30;;;;;;6232002;28;20164;-39
2021/12/12 10:44:26;;;;;;;;;;;21.60;49.50;;;;;;6212793;28;20249;-37
2021/12/12 10:47:32;;;;;;;;;;;22.00;49.80;;;;;;6231515;28;20169;-37
2021/12/12 10:50:41;;;;;;;;;;;21.20;49.30;;;;;;6232379;28;20184;-38
2021/12/12 10:53:46;;;;;;;;;;;21.50;49.50;;;;;;6232316;28;19931;-37
2021/12/12 10:56:50;;;;;;;;;;;21.40;49.30;;;;;;6229397;28;19935;-38
2021/12/12 10:59:53;;;;;;;;;;;21.30;49.30;;;;;;6229388;28;20509;-37
2021/12/12 11:03:01;;;;;;;;;;;21.70;49.50;;;;;;6225432;28;20280;-37
2021/12/12 11:06:06;;;;;;;;;;;21.40;49.40;;;;;;6232958;28;19932;-38
2021/12/12 11:09:12;;;;;;;;;;;21.50;49.50;;;;;;6228115;28;20110;-38
2021/12/12 11:12:17;;;;;;;;;;;21.40;49.50;;;;;;6233848;28;20793;-37
2021/12/12 11:15:22;;;;;;;;;;;21.70;49.60;;;;;;6229070;28;19960;-37
2021/12/12 11:18:25;;;;;;;;;;;21.60;48.70;;;;;;6229712;28;20052;-38
2021/12/12 11:21:29;;;;;;;;;;;21.60;49.30;;;;;;6210875;28;20039;-38
2021/12/12 11:24:32;;;;;;;;;;;21.30;49.40;;;;;;6213076;28;20333;-38
2021/12/12 11:27:35;;;;;;;;;;;21.80;49.60;;;;;;6233842;28;20697;-38
2021/12/12 11:30:40;;;;;;;;;;;21.70;49.60;;;;;;6229134;28;20083;-37
2021/12/12 11:33:43;;;;;;;;;;;21.50;49.30;;;;;;6226608;28;20059;-37
2021/12/12 11:36:50;;;;;;;;;;;21.30;49.30;;;;;;6209639;28;19924;-38
2021/12/12 11:39:54;;;;;;;;;;;21.30;49.10;;;;;;6229935;28;19997;-38
2021/12/12 11:42:58;;;;;;;;;;;21.10;49.10;;;;;;6211827;28;20087;-38
2021/12/12 11:46:04;;;;;;;;;;;21.10;49.00;;;;;;6230995;28;20520;-38
2021/12/12 11:49:11;;;;;;;;;;;22.10;49.60;;;;;;6228863;28;20363;-37
2021/12/12 11:52:17;;;;;;;;;;;21.50;49.20;;;;;;6229948;28;19932;-37
2021/12/12 11:55:20;;;;;;;;;;;21.30;49.30;;;;;;6227672;28;20048;-38
2021/12/12 11:58:24;;;;;;;;;;;21.30;49.80;;;;;;6208299;28;20151;-38
2021/12/12 12:01:27;;;;;;;;;;;21.70;49.20;;;;;;6212429;28;19925;-38
2021/12/12 12:04:41;;;;;;;;;;;21.90;49.30;;;;;;6211634;28;19928;-37
2021/12/12 12:07:49;;;;;;;;;;;21.40;49.10;;;;;;6227841;28;20001;-37
2021/12/12 12:10:56;;;;;;;;;;;21.40;49.10;;;;;;6233505;28;20055;-38
2021/12/12 12:14:01;;;;;;;;;;;21.80;49.30;;;;;;6230043;28;19929;-40
2021/12/12 12:17:07;;;;;;;;;;;21.80;49.40;;;;;;6226998;28;20052;-39
2021/12/12 12:20:10;;;;;;;;;;;22.10;49.50;;;;;;6229483;28;19985;-38
2021/12/12 12:23:31;;;;;;;;;;;22.00;49.90;;;;;;6215613;28;20347;-37
2021/12/12 12:30:00;;;;;;;;;;;21.80;49.30;;;;;;6227529;28;20062;-37
2021/12/12 12:33:17;;;;;;;;;;;21.30;49.00;;;;;;6207176;28;21062;-37
2021/12/12 12:36:33;;;;;;;;;;;21.80;49.20;;;;;;6230210;28;20412;-38
2021/12/12 12:40:05;;;;;;;;;;;21.60;49.20;;;;;;6219586;28;20313;-37
2021/12/12 12:43:22;;;;;;;;;;;21.90;49.40;;;;;;6210792;28;20441;-39
2021/12/12 12:46:35;;;;;;;;;;;22.90;49.90;;;;;;6224483;28;19979;-37
2021/12/12 12:49:45;;;;;;;;;;;21.60;49.20;;;;;;6224000;28;20372;-38
2021/12/12 12:53:02;;;;;;;;;;;22.10;49.30;;;;;;6228349;28;20050;-39
2021/12/12 12:56:08;;;;;;;;;;;21.70;49.20;;;;;;6225978;28;20030;-38
2021/12/12 12:59:19;;;;;;;;;;;21.50;49.10;;;;;;6212041;28;20285;-38
2021/12/12 13:02:28;;;;;;;;;;;21.70;49.20;;;;;;6217133;28;19928;-37
2021/12/12 13:05:40;;;;;;;;;;;21.70;49.30;;;;;;6220171;28;20150;-37
2021/12/12 13:08:56;;;;;;;;;;;22.10;49.30;;;;;;6220809;28;20726;-37
2021/12/12 13:12:12;;;;;;;;;;;21.60;49.00;;;;;;6193885;28;20035;-37
2021/12/12 13:15:21;;;;;;;;;;;21.80;49.20;;;;;;6227040;28;20366;-37
2021/12/12 13:18:29;;;;;;;;;;;22.10;49.20;;;;;;6205767;28;20013;-38
2021/12/12 13:21:34;;;;;;;;;;;22.20;49.40;;;;;;6210063;28;20344;-39
2021/12/12 13:24:39;;;;;;;;;;;22.40;49.60;;;;;;6225843;28;20818;-38
2021/12/12 13:31:05;;;;;;;;;;;21.70;49.20;;;;;;6210483;28;19924;-37
2021/12/12 13:34:11;;;;;;;;;;;21.90;49.30;;;;;;6227777;28;20237;-38
2021/12/12 13:37:15;;;;;;;;;;;21.70;49.20;;;;;;6226809;28;20464;-37
2021/12/12 13:40:23;;;;;;;;;;;22.00;49.30;;;;;;6205560;28;19936;-38
2021/12/12 13:43:34;;;;;;;;;;;21.70;49.20;;;;;;6221537;28;20805;-37
2021/12/12 13:46:40;;;;;;;;;;;21.80;49.40;;;;;;6222913;28;20080;-39
2021/12/12 13:49:45;;;;;;;;;;;21.80;49.20;;;;;;6226616;28;20242;-38
2021/12/12 13:52:50;;;;;;;;;;;21.80;49.20;;;;;;6206491;28;19936;-39
2021/12/12 13:55:55;;;;;;;;;;;22.20;49.60;;;;;;6217758;28;19924;-37
2021/12/12 13:59:01;;;;;;;;;;;22.20;49.50;;;;;;6210845;28;19954;-38
2021/12/12 14:02:04;;;;;;;;;;;21.40;49.00;;;;;;6193976;28;20363;-37
2021/12/12 14:05:10;;;;;;;;;;;22.10;49.80;;;;;;6221800;28;19928;-40
2021/12/12 14:08:13;;;;;;;;;;;21.80;49.30;;;;;;6227489;28;19928;-37
2021/12/12 14:11:20;;;;;;;;;;;21.70;49.20;;;;;;6227527;28;21396;-40
2021/12/12 14:14:24;;;;;;;;;;;21.70;49.20;;;;;;6210401;28;20141;-39
2021/12/12 14:17:28;;;;;;;;;;;22.00;49.50;;;;;;6225891;28;20739;-38
2021/12/12 14:20:31;;;;;;;;;;;22.00;48.80;;;;;;6224062;28;20111;-38
2021/12/12 14:23:33;;;;;;;;;;;22.00;49.80;;;;;;6205824;28;20599;-39
2021/12/12 14:26:37;;;;;;;;;;;22.20;49.30;;;;;;6205257;28;19928;-39
2021/12/12 14:29:39;;;;;;;;;;;22.20;49.40;;;;;;6209212;28;20349;-38
2021/12/12 14:32:44;;;;;;;;;;;22.10;49.60;;;;;;6222715;28;20389;-38
2021/12/12 14:35:47;;;;;;;;;;;22.20;49.50;;;;;;6223927;28;20758;-38
2021/12/12 14:38:49;;;;;;;;;;;21.70;49.20;;;;;;6224910;28;20043;-38
2021/12/12 14:41:59;;;;;;;;;;;22.10;49.50;;;;;;6196276;28;20221;-38
2021/12/12 14:45:05;;;;;;;;;;;21.70;49.30;;;;;;6226451;28;20725;-38
2021/12/12 14:48:08;;;;;;;;;;;21.60;49.10;;;;;;6226700;28;20192;-37
2021/12/12 14:51:12;;;;;;;;;;;21.80;49.30;;;;;;6208945;28;19928;-38
2021/12/12 14:54:14;;;;;;;;;;;22.20;49.60;;;;;;6224974;28;20493;-38
2021/12/12 14:57:17;;;;;;;;;;;22.70;49.70;;;;;;6226212;28;20399;-38
2021/12/12 15:00:20;;;;;;;;;;;22.40;49.60;;;;;;6222427;28;19928;-37
2021/12/12 15:03:23;;;;;;;;;;;21.80;49.30;;;;;;6208851;28;19937;-39
2021/12/12 15:06:27;;;;;;;;;;;21.80;49.30;;;;;;6221914;28;20203;-38
2021/12/12 15:09:30;;;;;;;;;;;21.80;49.90;;;;;;6210465;28;20691;-37
2021/12/12 15:12:38;;;;;;;;;;;21.80;49.30;;;;;;6226868;28;19928;-38
2021/12/12 15:15:46;;;;;;;;;;;21.90;49.40;;;;;;6225561;28;20221;-38
2021/12/12 15:18:49;;;;;;;;;;;22.00;49.60;;;;;;6224781;28;20188;-37
2021/12/12 15:21:55;;;;;;;;;;;21.60;49.30;;;;;;6228809;28;20113;-39
2021/12/12 15:24:58;;;;;;;;;;;22.10;49.50;;;;;;6219969;28;20046;-40
2021/12/12 15:28:01;;;;;;;;;;;22.30;49.60;;;;;;6227460;28;20047;-38
2021/12/12 15:31:05;;;;;;;;;;;22.00;49.50;;;;;;6204933;28;20054;-37
2021/12/12 15:34:09;;;;;;;;;;;21.80;49.70;;;;;;6222259;28;19939;-39
2021/12/12 15:37:11;;;;;;;;;;;21.90;49.40;;;;;;6209926;28;19942;-39
2021/12/12 15:40:14;;;;;;;;;;;21.90;49.40;;;;;;6226405;28;20309;-38
2021/12/12 15:43:20;;;;;;;;;;;21.60;49.20;;;;;;6239847;28;20058;-38
2021/12/12 15:46:23;;;;;;;;;;;21.80;49.40;;;;;;6210189;28;19932;-38
2021/12/12 15:49:27;;;;;;;;;;;21.90;49.60;;;;;;6208352;28;20374;-39
2021/12/12 15:52:30;;;;;;;;;;;22.00;49.60;;;;;;6224456;28;20393;-39
2021/12/12 15:55:33;;;;;;;;;;;22.20;49.70;;;;;;6205819;28;20124;-37
2021/12/12 15:58:37;;;;;;;;;;;22.40;49.70;;;;;;6225299;28;20589;-37
2021/12/12 16:01:43;;;;;;;;;;;21.90;49.50;;;;;;6222698;28;20598;-39
2021/12/12 16:04:45;;;;;;;;;;;22.30;49.60;;;;;;6209287;28;20650;-38
2021/12/12 16:07:48;;;;;;;;;;;21.80;49.40;;;;;;6220352;28;20603;-37
2021/12/12 16:10:51;;;;;;;;;;;21.80;49.50;;;;;;6224521;28;19967;-39
2021/12/12 16:13:55;;;;;;;;;;;21.70;49.40;;;;;;6220661;28;20071;-38
2021/12/12 16:16:57;;;;;;;;;;;22.00;49.60;;;;;;6224500;28;20055;-38
2021/12/12 16:20:05;;;;;;;;;;;21.70;49.50;;;;;;6224744;28;20353;-39
2021/12/12 16:23:11;;;;;;;;;;;22.00;49.60;;;;;;6218598;28;19932;-37
2021/12/12 16:26:18;;;;;;;;;;;21.80;49.50;;;;;;6222859;28;20353;-38
2021/12/12 16:29:21;;;;;;;;;;;22.20;49.80;;;;;;6224849;28;20350;-38
2021/12/12 16:32:26;;;;;;;;;;;22.20;49.70;;;;;;6208553;28;20384;-38
2021/12/12 16:35:31;;;;;;;;;;;21.70;49.50;;;;;;6226793;28;20092;-39
2021/12/12 16:38:38;;;;;;;;;;;21.50;49.20;;;;;;6207959;28;20635;-38
2021/12/12 16:41:40;;;;;;;;;;;21.90;49.50;;;;;;6220313;28;20265;-38
2021/12/12 16:44:45;;;;;;;;;;;22.10;49.50;;;;;;6223134;28;19942;-37
2021/12/12 16:47:50;;;;;;;;;;;21.90;49.50;;;;;;6207039;28;20072;-37
2021/12/12 16:50:54;;;;;;;;;;;21.80;49.60;;;;;;6206986;28;20316;-38
2021/12/12 16:53:56;;;;;;;;;;;21.90;49.50;;;;;;6222110;28;20786;-38
2021/12/12 16:57:01;;;;;;;;;;;21.80;49.50;;;;;;6222725;28;20721;-37
2021/12/12 17:00:05;;;;;;;;;;;22.20;49.70;;;;;;6231693;28;20587;-39
2021/12/12 17:03:09;;;;;;;;;;;22.70;50.00;;;;;;6200066;28;20239;-37
2021/12/12 17:06:16;;;;;;;;;;;21.80;49.60;;;;;;6201270;28;19929;-38
2021/12/12 17:09:19;;;;;;;;;;;21.80;49.50;;;;;;6222815;28;20048;-38
2021/12/12 17:12:21;;;;;;;;;;;22.00;49.60;;;;;;6223498;28;20289;-39
2021/12/12 17:15:24;;;;;;;;;;;21.80;49.50;;;;;;6207003;28;19993;-38
2021/12/12 17:18:30;;;;;;;;;;;21.50;49.40;;;;;;6224065;28;20062;-37
2021/12/12 17:21:32;;;;;;;;;;;22.20;49.20;;;;;;6218933;28;19928;-38
2021/12/12 17:24:37;;;;;;;;;;;22.10;49.80;;;;;;6218165;28;20448;-37
2021/12/12 17:27:39;;;;;;;;;;;21.60;49.50;;;;;;6223894;28;19928;-37
2021/12/12 17:30:46;;;;;;;;;;;21.50;49.50;;;;;;6226236;28;20065;-38
2021/12/12 17:33:51;;;;;;;;;;;22.10;49.80;;;;;;6195452;28;20039;-37
2021/12/12 17:36:56;;;;;;;;;;;22.10;50.00;;;;;;6198655;28;20015;-40
2021/12/12 17:40:04;;;;;;;;;;;21.60;49.60;;;;;;6215692;28;19928;-38
2021/12/12 17:43:20;;;;;;;;;;;21.90;49.80;;;;;;6213561;28;19924;-39
2021/12/12 17:46:36;;;;;;;;;;;21.30;49.50;;;;;;6226118;28;20047;-39
2021/12/12 17:49:52;;;;;;;;;;;21.70;49.80;;;;;;6211935;28;21642;-39
2021/12/12 17:53:04;;;;;;;;;;;21.60;49.80;;;;;;6227678;28;19963;-38
2021/12/12 17:56:13;;;;;;;;;;;22.00;50.10;;;;;;6195649;28;19935;-38
2021/12/12 17:59:18;;;;;;;;;;;22.10;50.30;;;;;;6200243;28;20314;-38
2021/12/12 18:02:22;;;;;;;;;;;22.00;50.10;;;;;;6218700;28;20050;-38
2021/12/12 18:05:36;;;;;;;;;;;21.80;50.00;;;;;;6231359;28;20169;-38
2021/12/12 18:08:43;;;;;;;;;;;21.90;50.30;;;;;;6208481;28;20328;-39
2021/12/12 18:11:49;;;;;;;;;;;21.60;50.00;;;;;;6206973;28;19928;-38
2021/12/12 18:14:50;;;;;;;;;;;21.80;50.20;;;;;;6229255;28;20612;-38
2021/12/12 18:18:15;;;;;;;;;;;21.50;50.00;;;;;;6227786;28;19971;-38
2021/12/12 18:21:20;;;;;;;;;;;21.50;50.00;;;;;;6210637;28;20350;-37